Terminal Aerodrome Forecast
Issued by NWS Austin/San Antonio, TX

Home | Current Version | Previous Version | Text Only | Print | Product List | Glossary On
Versions: 1 2 3 4 5 6 7 8 9 10 11 12 13 14 15 16 17 18 19 20 21 22 23
089
FTUS44 KEWX 082331
TAFAUS
TAF
KAUS 082331Z 0900/1006 01015G25KT P6SM BKN100
     FM090200 01015KT P6SM OVC050
     FM090600 36010KT P6SM OVC070
     FM091600 03005KT P6SM SCT250=

USA.gov is the U.S. government's official web portal to all federal, state and local government web resources and services.